createdAt,value
2017-12-17T00:01:13.910Z,3.00
2017-12-17T00:03:40.608Z,2.70
2017-12-17T00:06:06.554Z,2.70
2017-12-17T00:08:32.562Z,2.50
2017-12-17T00:10:58.539Z,2.40
2017-12-17T00:13:24.505Z,2.40
2017-12-17T00:15:51.188Z,2.40
2017-12-17T00:18:17.201Z,2.40
2017-12-17T00:20:43.966Z,2.50
2017-12-17T00:23:09.892Z,2.50
2017-12-17T00:25:36.631Z,2.60
2017-12-17T00:28:03.320Z,2.60
2017-12-17T00:30:29.307Z,2.60
2017-12-17T00:32:55.292Z,2.60
2017-12-17T00:35:21.261Z,2.60
2017-12-17T00:37:47.352Z,2.60
2017-12-17T00:40:13.332Z,2.60
2017-12-17T00:42:39.309Z,2.60
2017-12-17T00:45:06.144Z,2.70
2017-12-17T00:47:32.161Z,2.70
2017-12-17T00:49:58.177Z,2.70
2017-12-17T00:52:24.165Z,2.70
2017-12-17T00:54:50.108Z,2.80
2017-12-17T00:57:16.882Z,2.70
2017-12-17T00:59:42.884Z,2.70
2017-12-17T01:02:08.832Z,2.70
2017-12-17T01:04:35.560Z,2.80
2017-12-17T01:07:01.611Z,2.80
2017-12-17T01:09:27.559Z,2.80
2017-12-17T01:11:54.283Z,2.90
2017-12-17T01:14:20.256Z,2.90
2017-12-17T01:16:46.994Z,3.00
2017-12-17T01:19:13.726Z,2.90
2017-12-17T01:21:39.705Z,3.00
2017-12-17T01:24:05.644Z,3.00
2017-12-17T01:26:32.328Z,3.10
2017-12-17T01:28:58.368Z,3.10
2017-12-17T01:31:24.368Z,3.10
2017-12-17T01:33:51.091Z,3.10
2017-12-17T01:36:17.035Z,3.10
2017-12-17T01:38:46.625Z,3.10
2017-12-17T01:41:12.656Z,3.10
2017-12-17T01:43:39.280Z,3.00
2017-12-17T01:46:05.246Z,3.00
2017-12-17T01:48:31.192Z,3.00
2017-12-17T01:50:57.170Z,3.00
2017-12-17T01:53:23.121Z,3.10
2017-12-17T01:55:49.096Z,3.10
2017-12-17T01:58:15.049Z,3.10
2017-12-17T02:00:41.079Z,3.10
2017-12-17T02:03:07.896Z,3.10
2017-12-17T02:05:33.928Z,3.10
2017-12-17T02:07:59.868Z,3.10
2017-12-17T02:10:25.873Z,3.00
2017-12-17T02:12:52.630Z,3.00
2017-12-17T02:15:18.538Z,3.00
2017-12-17T02:17:44.517Z,2.90
2017-12-17T02:20:10.461Z,2.90
2017-12-17T02:22:36.452Z,2.70
2017-12-17T02:25:02.388Z,2.60
2017-12-17T02:27:29.114Z,2.60
2017-12-17T02:29:56.902Z,2.60
2017-12-17T02:32:22.888Z,2.50
2017-12-17T02:34:48.842Z,2.50
2017-12-17T02:37:14.793Z,2.40
2017-12-17T02:39:40.801Z,2.40
2017-12-17T02:42:06.737Z,2.30
2017-12-17T02:44:32.677Z,2.30
2017-12-17T02:46:58.688Z,2.30
2017-12-17T02:49:24.662Z,2.30
2017-12-17T02:51:50.630Z,2.30
2017-12-17T02:54:16.652Z,2.40
2017-12-17T02:56:42.633Z,2.40
2017-12-17T02:59:08.609Z,2.40
2017-12-17T03:01:34.630Z,2.50
2017-12-17T03:04:00.642Z,2.50
2017-12-17T03:06:26.642Z,2.60
2017-12-17T03:08:52.613Z,2.60
2017-12-17T03:11:18.589Z,2.60
2017-12-17T03:13:44.571Z,2.60
2017-12-17T03:16:11.266Z,2.60
2017-12-17T03:18:37.278Z,2.60
2017-12-17T03:21:03.234Z,2.70
2017-12-17T03:23:29.196Z,2.70
2017-12-17T03:25:55.203Z,2.80
2017-12-17T03:28:21.214Z,2.80
2017-12-17T03:30:47.932Z,2.80
2017-12-17T03:33:13.910Z,2.90
2017-12-17T03:35:39.904Z,2.90
2017-12-17T03:38:05.902Z,2.90
2017-12-17T03:40:31.858Z,2.90
2017-12-17T03:42:57.858Z,3.00
2017-12-17T03:45:23.810Z,3.00
2017-12-17T03:47:49.817Z,3.00
2017-12-17T03:50:16.509Z,2.90
2017-12-17T03:52:42.482Z,2.90
2017-12-17T03:55:08.420Z,2.90
2017-12-17T03:57:34.401Z,2.90
2017-12-17T04:00:00.373Z,2.90
2017-12-17T04:02:26.348Z,2.90
2017-12-17T04:04:52.325Z,3.00
2017-12-17T04:07:18.282Z,2.90
2017-12-17T04:09:44.287Z,2.90
2017-12-17T04:12:10.248Z,2.90
2017-12-17T04:14:36.245Z,2.80
2017-12-17T04:17:02.248Z,2.80
2017-12-17T04:19:28.217Z,2.80
2017-12-17T04:21:54.197Z,2.80
2017-12-17T04:24:20.196Z,2.70
2017-12-17T04:26:46.137Z,2.70
2017-12-17T04:29:12.100Z,2.80
2017-12-17T04:31:38.082Z,2.70
2017-12-17T04:34:04.048Z,2.80
2017-12-17T04:36:30.004Z,2.80
2017-12-17T04:38:55.979Z,2.70
2017-12-17T04:41:22.710Z,2.80
2017-12-17T04:43:48.644Z,2.70
2017-12-17T04:46:14.625Z,2.80
2017-12-17T04:48:40.602Z,2.70
2017-12-17T04:51:06.548Z,2.70
2017-12-17T04:53:32.557Z,2.80
2017-12-17T04:55:58.548Z,2.80
2017-12-17T04:58:25.281Z,2.80
2017-12-17T05:00:51.230Z,2.70
2017-12-17T05:03:17.962Z,2.90
2017-12-17T05:05:43.919Z,2.80
2017-12-17T05:08:10.634Z,2.80
2017-12-17T05:10:36.573Z,2.80
2017-12-17T05:13:02.548Z,2.80
2017-12-17T05:15:29.268Z,2.80
2017-12-17T05:17:55.231Z,2.80
2017-12-17T05:20:21.954Z,2.90
2017-12-17T05:22:47.902Z,2.80
2017-12-17T05:25:13.921Z,3.00
2017-12-17T05:27:39.869Z,3.00
2017-12-17T05:30:05.825Z,3.00
2017-12-17T05:32:32.541Z,3.00
2017-12-17T05:34:58.515Z,3.00
2017-12-17T05:37:25.246Z,3.00
2017-12-17T05:39:51.189Z,3.00
2017-12-17T05:42:17.166Z,3.10
2017-12-17T05:44:43.139Z,3.00
2017-12-17T05:47:09.153Z,3.00
2017-12-17T05:49:35.114Z,3.00
2017-12-17T05:52:01.158Z,3.00
2017-12-17T05:54:27.444Z,2.70
2017-12-17T05:56:53.481Z,2.60
2017-12-17T05:59:19.433Z,2.40
2017-12-17T06:01:45.437Z,2.30
2017-12-17T06:04:12.138Z,2.20
2017-12-17T06:06:38.082Z,2.20
2017-12-17T06:09:04.069Z,2.20
2017-12-17T06:11:30.765Z,2.30
2017-12-17T06:13:56.741Z,2.30
2017-12-17T06:16:23.482Z,2.40
2017-12-17T06:18:49.425Z,2.30
2017-12-17T06:21:15.402Z,2.40
2017-12-17T06:23:41.418Z,2.40
2017-12-17T06:26:08.122Z,2.40
2017-12-17T06:28:34.070Z,2.40
2017-12-17T06:31:00.153Z,2.40
2017-12-17T06:33:26.112Z,2.40
2017-12-17T06:35:52.070Z,2.50
2017-12-17T06:38:18.064Z,2.50
2017-12-17T06:40:44.023Z,2.50
2017-12-17T06:43:10.025Z,2.50
2017-12-17T06:45:36.717Z,2.40
2017-12-17T06:48:02.672Z,2.40
2017-12-17T06:50:28.653Z,2.40
2017-12-17T06:52:54.633Z,2.40
2017-12-17T06:55:20.577Z,2.30
2017-12-17T06:57:46.555Z,2.30
2017-12-17T07:00:12.514Z,2.30
2017-12-17T07:02:38.502Z,2.20
2017-12-17T07:05:04.622Z,2.30
2017-12-17T07:07:30.597Z,2.30
2017-12-17T07:09:57.350Z,2.20
2017-12-17T07:12:23.319Z,2.20
2017-12-17T07:14:49.273Z,2.30
2017-12-17T07:17:15.254Z,2.20
2017-12-17T07:19:42.024Z,2.10
2017-12-17T07:22:07.970Z,2.10
2017-12-17T07:24:33.998Z,2.10
2017-12-17T07:27:00.003Z,2.20
2017-12-17T07:29:26.744Z,2.30
2017-12-17T07:31:52.693Z,2.30
2017-12-17T07:34:19.432Z,2.30
2017-12-17T07:36:45.408Z,2.30
2017-12-17T07:39:11.381Z,2.40
2017-12-17T07:41:38.077Z,2.40
2017-12-17T07:44:04.029Z,2.40
2017-12-17T07:46:30.006Z,2.50
2017-12-17T07:48:55.973Z,2.40
2017-12-17T07:51:22.001Z,2.40
2017-12-17T07:53:47.954Z,2.40
2017-12-17T07:56:14.649Z,2.20
2017-12-17T07:58:40.633Z,2.20
2017-12-17T08:01:06.603Z,2.20
2017-12-17T08:03:32.541Z,2.30
2017-12-17T08:05:58.584Z,2.30
2017-12-17T08:08:24.529Z,2.20
2017-12-17T08:10:50.485Z,2.20
2017-12-17T08:13:17.218Z,2.40
2017-12-17T08:15:43.203Z,2.30
2017-12-17T08:18:09.190Z,2.40
2017-12-17T08:20:35.246Z,2.40
2017-12-17T08:23:01.938Z,2.60
2017-12-17T08:25:27.905Z,2.60
2017-12-17T08:27:53.897Z,2.60
2017-12-17T08:30:19.854Z,2.60
2017-12-17T08:32:45.837Z,2.60
2017-12-17T08:35:12.566Z,2.80
2017-12-17T08:37:38.531Z,2.70
2017-12-17T08:40:05.253Z,2.90
2017-12-17T08:42:31.218Z,2.80
2017-12-17T08:44:57.947Z,3.00
2017-12-17T08:47:23.905Z,3.00
2017-12-17T08:49:50.641Z,3.00
2017-12-17T08:52:16.638Z,3.00
2017-12-17T08:54:42.586Z,3.10
2017-12-17T08:57:08.596Z,3.20
2017-12-17T08:59:34.610Z,3.20
2017-12-17T09:02:00.591Z,3.10
2017-12-17T09:04:26.634Z,3.20
2017-12-17T09:06:52.621Z,3.20
2017-12-17T09:09:19.297Z,3.30
2017-12-17T09:11:45.237Z,3.30
2017-12-17T09:14:11.205Z,3.30
2017-12-17T09:16:37.181Z,3.30
2017-12-17T09:19:03.917Z,3.30
2017-12-17T09:21:29.900Z,3.30
2017-12-17T09:23:56.012Z,3.30
2017-12-17T09:26:21.940Z,3.10
2017-12-17T09:28:48.715Z,3.20
2017-12-17T09:31:14.696Z,3.20
2017-12-17T09:33:40.665Z,3.20
2017-12-17T09:36:07.388Z,3.30
2017-12-17T09:38:33.341Z,3.30
2017-12-17T09:40:59.362Z,3.30
2017-12-17T09:43:25.376Z,3.20
2017-12-17T09:45:51.346Z,3.20
2017-12-17T09:48:17.332Z,3.10
2017-12-17T09:50:43.311Z,3.10
2017-12-17T09:53:09.304Z,3.10
2017-12-17T09:55:35.253Z,3.00
2017-12-17T09:58:01.278Z,2.90
2017-12-17T10:00:27.291Z,3.00
2017-12-17T10:02:53.282Z,2.80
2017-12-17T10:05:19.250Z,2.60
2017-12-17T10:07:45.982Z,2.40
2017-12-17T10:10:11.977Z,2.40
2017-12-17T10:12:37.960Z,2.30
2017-12-17T10:15:03.902Z,2.10
2017-12-17T10:17:29.881Z,1.80
2017-12-17T10:19:55.889Z,1.70
2017-12-17T10:22:22.617Z,1.50
2017-12-17T10:24:48.653Z,1.40
2017-12-17T10:27:14.612Z,1.40
2017-12-17T10:29:40.590Z,1.40
2017-12-17T10:32:06.543Z,1.30
2017-12-17T10:34:32.597Z,1.20
2017-12-17T10:36:58.579Z,1.10
2017-12-17T10:39:24.566Z,1.00
2017-12-17T10:41:50.510Z,1.00
2017-12-17T10:44:16.461Z,1.00
2017-12-17T10:46:42.474Z,1.10
2017-12-17T10:49:08.438Z,1.10
2017-12-17T10:51:35.162Z,1.20
2017-12-17T10:54:01.148Z,1.20
2017-12-17T10:56:27.135Z,1.10
2017-12-17T10:58:53.121Z,1.20
2017-12-17T11:01:19.126Z,1.30
2017-12-17T11:03:45.853Z,1.40
2017-12-17T11:06:11.841Z,1.30
2017-12-17T11:08:37.800Z,1.40
2017-12-17T11:11:03.786Z,1.30
2017-12-17T11:13:30.485Z,1.30
2017-12-17T11:15:56.466Z,1.30
2017-12-17T11:18:22.475Z,1.40
2017-12-17T11:20:49.167Z,1.40
2017-12-17T11:23:15.860Z,1.50
2017-12-17T11:25:41.887Z,1.40
2017-12-17T11:28:07.887Z,1.50
2017-12-17T11:30:33.833Z,1.60
2017-12-17T11:33:00.589Z,1.70
2017-12-17T11:35:27.335Z,1.60
2017-12-17T11:37:54.027Z,1.70
2017-12-17T11:40:20.060Z,1.70
2017-12-17T11:42:46.038Z,1.70
2017-12-17T11:45:12.045Z,1.70
2017-12-17T11:47:38.047Z,1.80
2017-12-17T11:50:04.781Z,1.80
2017-12-17T11:52:30.761Z,1.80
2017-12-17T11:54:56.738Z,1.90
2017-12-17T11:57:22.694Z,2.00
2017-12-17T11:59:49.410Z,2.10
2017-12-17T12:02:15.513Z,2.10
2017-12-17T12:04:41.524Z,2.10
2017-12-17T12:07:07.526Z,2.00
2017-12-17T12:09:33.489Z,2.10
2017-12-17T12:11:59.512Z,2.20
2017-12-17T12:14:25.500Z,2.20
2017-12-17T12:16:51.476Z,2.30
2017-12-17T12:19:17.494Z,2.30
2017-12-17T12:21:43.487Z,2.30
2017-12-17T12:24:10.197Z,2.10
2017-12-17T12:26:36.187Z,2.20
2017-12-17T12:29:02.203Z,2.20
2017-12-17T12:31:28.942Z,2.30
2017-12-17T12:33:55.010Z,2.30
2017-12-17T12:36:20.997Z,2.30
2017-12-17T12:38:46.933Z,2.30
2017-12-17T12:41:12.925Z,2.40
2017-12-17T12:43:38.904Z,2.40
2017-12-17T12:46:04.880Z,2.50
2017-12-17T12:48:31.618Z,2.50
2017-12-17T12:50:57.625Z,2.50
2017-12-17T12:53:24.344Z,2.40
2017-12-17T12:55:50.322Z,2.40
2017-12-17T12:58:16.311Z,2.40
2017-12-17T13:00:42.286Z,2.50
2017-12-17T13:03:08.310Z,2.50
2017-12-17T13:05:34.250Z,2.60
2017-12-17T13:08:00.189Z,2.60
2017-12-17T13:10:26.204Z,2.60
2017-12-17T13:12:52.159Z,2.60
2017-12-17T13:15:18.184Z,2.60
2017-12-17T13:17:44.152Z,2.70
2017-12-17T13:20:10.146Z,2.60
2017-12-17T13:22:36.109Z,2.40
2017-12-17T13:25:02.113Z,2.40
2017-12-17T13:27:28.078Z,2.40
2017-12-17T13:29:54.073Z,2.50
2017-12-17T13:32:20.045Z,2.50
2017-12-17T13:34:46.026Z,2.50
2017-12-17T13:37:12.091Z,2.50
2017-12-17T13:39:38.130Z,2.50
2017-12-17T13:42:04.144Z,2.50
2017-12-17T13:44:30.993Z,2.40
2017-12-17T13:46:56.966Z,2.50
2017-12-17T13:49:22.946Z,2.40
2017-12-17T13:51:48.968Z,2.40
2017-12-17T13:54:15.007Z,2.30
2017-12-17T13:56:40.973Z,2.40
2017-12-17T13:59:06.954Z,2.40
2017-12-17T14:01:32.897Z,2.40
2017-12-17T14:03:58.889Z,2.30
2017-12-17T14:06:25.577Z,2.30
2017-12-17T14:08:51.599Z,2.30
2017-12-17T14:11:17.558Z,2.40
2017-12-17T14:13:43.628Z,2.40
2017-12-17T14:16:09.612Z,2.40
2017-12-17T14:18:35.653Z,2.50
2017-12-17T14:21:01.687Z,2.50
2017-12-17T14:23:28.487Z,2.50
2017-12-17T14:25:54.437Z,2.50
2017-12-17T14:28:20.405Z,2.50
2017-12-17T14:30:47.077Z,2.60
2017-12-17T14:33:13.112Z,2.60
2017-12-17T14:35:39.115Z,2.60
2017-12-17T14:38:05.115Z,2.60
2017-12-17T14:40:31.157Z,2.60
2017-12-17T14:42:57.154Z,2.50
2017-12-17T14:45:23.198Z,2.50
2017-12-17T14:47:49.187Z,2.50
2017-12-17T14:50:15.174Z,2.40
2017-12-17T14:52:41.200Z,2.20
2017-12-17T14:55:07.141Z,2.00
2017-12-17T14:57:33.168Z,1.90
2017-12-17T14:59:59.138Z,1.90
2017-12-17T15:02:25.182Z,1.90
2017-12-17T15:04:51.130Z,1.90
2017-12-17T15:07:17.109Z,1.90
2017-12-17T15:09:43.069Z,2.00
2017-12-17T15:12:09.036Z,2.00
2017-12-17T15:14:34.977Z,2.00
2017-12-17T15:17:01.030Z,1.90
2017-12-17T15:19:27.013Z,2.00
2017-12-17T15:21:53.020Z,1.90
2017-12-17T15:24:19.725Z,1.80
2017-12-17T15:26:45.719Z,1.80
2017-12-17T15:29:11.702Z,1.60
2017-12-17T15:31:37.644Z,1.50
2017-12-17T15:34:03.617Z,1.40
2017-12-17T15:36:29.646Z,1.40
2017-12-17T15:38:56.373Z,1.40
2017-12-17T15:41:22.354Z,1.40
2017-12-17T15:43:48.287Z,1.50
2017-12-17T15:46:14.285Z,1.50
2017-12-17T15:48:40.284Z,1.60
2017-12-17T15:51:06.305Z,1.50
2017-12-17T15:53:32.286Z,1.50
2017-12-17T15:55:58.296Z,1.60
2017-12-17T15:58:24.348Z,1.70
2017-12-17T16:00:51.308Z,1.70
2017-12-17T16:03:17.266Z,1.70
2017-12-17T16:05:43.258Z,1.70
2017-12-17T16:08:09.202Z,1.70
2017-12-17T16:10:35.186Z,1.70
2017-12-17T16:13:01.993Z,1.80
2017-12-17T16:15:28.044Z,1.80
2017-12-17T16:17:54.060Z,1.70
2017-12-17T16:20:20.019Z,1.70
2017-12-17T16:22:46.047Z,1.70
2017-12-17T16:25:12.048Z,1.70
2017-12-17T16:27:38.070Z,1.70
2017-12-17T16:30:04.786Z,1.60
2017-12-17T16:32:30.829Z,1.70
2017-12-17T16:34:56.825Z,1.70
2017-12-17T16:37:22.783Z,1.70
2017-12-17T16:39:48.804Z,1.70
2017-12-17T16:42:14.845Z,1.60
2017-12-17T16:44:40.872Z,1.60
2017-12-17T16:47:06.894Z,1.60
2017-12-17T16:49:32.892Z,1.70
2017-12-17T16:51:58.910Z,1.70
2017-12-17T16:54:24.939Z,1.80
2017-12-17T16:56:50.968Z,1.80
2017-12-17T16:59:16.922Z,1.70
2017-12-17T17:01:43.704Z,1.70
2017-12-17T17:04:10.477Z,1.70
2017-12-17T17:06:36.526Z,1.60
2017-12-17T17:09:02.482Z,1.60
2017-12-17T17:11:28.509Z,1.60
2017-12-17T17:13:54.546Z,1.60
2017-12-17T17:16:20.560Z,1.50
2017-12-17T17:18:46.601Z,1.50
2017-12-17T17:21:12.608Z,1.50
2017-12-17T17:23:38.545Z,1.50
2017-12-17T17:26:05.306Z,1.50
2017-12-17T17:28:32.052Z,1.50
2017-12-17T17:30:58.846Z,1.40
2017-12-17T17:33:24.904Z,1.40
2017-12-17T17:35:51.640Z,1.40
2017-12-17T17:38:17.616Z,1.40
2017-12-17T17:43:16.363Z,1.40
2017-12-17T17:45:42.347Z,1.50
2017-12-17T17:48:08.380Z,1.60
2017-12-17T17:50:34.429Z,1.50
2017-12-17T17:53:00.429Z,1.60
2017-12-17T17:55:27.231Z,1.60
2017-12-17T17:57:53.265Z,1.50
2017-12-17T18:00:19.288Z,1.60
2017-12-17T18:02:45.234Z,1.50
2017-12-17T18:05:11.213Z,1.50
2017-12-17T18:07:37.277Z,1.50
2017-12-17T18:10:03.278Z,1.50
2017-12-17T18:12:29.280Z,1.50
2017-12-17T18:14:55.288Z,1.50
2017-12-17T18:17:21.501Z,1.40
2017-12-17T18:19:48.249Z,1.40
2017-12-17T18:22:14.261Z,1.40
2017-12-17T18:24:40.270Z,1.40
2017-12-17T18:27:06.222Z,1.40
2017-12-17T18:29:32.257Z,1.50
2017-12-17T18:31:58.275Z,1.40
2017-12-17T18:34:24.221Z,1.50
2017-12-17T18:36:50.288Z,1.50
2017-12-17T18:39:16.367Z,1.50
2017-12-17T18:41:43.108Z,1.50
2017-12-17T18:44:09.884Z,1.50
2017-12-17T18:46:35.871Z,1.50
2017-12-17T18:49:01.868Z,1.50
2017-12-17T18:51:27.949Z,1.50
2017-12-17T18:53:53.961Z,1.50
2017-12-17T18:56:19.992Z,1.50
2017-12-17T18:58:45.952Z,1.50
2017-12-17T19:01:12.754Z,1.50
2017-12-17T19:03:38.777Z,1.50
2017-12-17T19:06:05.509Z,1.50
2017-12-17T19:08:31.495Z,1.50
2017-12-17T19:10:57.536Z,1.60
2017-12-17T19:13:23.571Z,1.60
2017-12-17T19:15:49.625Z,1.50
2017-12-17T19:18:15.625Z,1.60
2017-12-17T19:20:42.423Z,1.60
2017-12-17T19:23:08.426Z,1.60
2017-12-17T19:25:34.450Z,1.50
2017-12-17T19:28:01.218Z,1.50
2017-12-17T19:30:27.276Z,1.50
2017-12-17T19:32:53.293Z,1.50
2017-12-17T19:35:19.325Z,1.50
2017-12-17T19:37:45.309Z,1.50
2017-12-17T19:40:11.341Z,1.50
2017-12-17T19:42:37.369Z,1.50
2017-12-17T19:45:03.437Z,1.50
2017-12-17T19:47:29.473Z,1.50
2017-12-17T19:49:55.513Z,1.60
2017-12-17T19:52:21.622Z,1.70
2017-12-17T19:54:47.616Z,1.60
2017-12-17T19:57:14.400Z,1.50
2017-12-17T19:59:40.421Z,1.50
2017-12-17T20:02:06.430Z,1.60
2017-12-17T20:04:32.476Z,1.50
2017-12-17T20:06:59.295Z,1.60
2017-12-17T20:09:25.301Z,1.60
2017-12-17T20:11:51.337Z,1.70
2017-12-17T20:14:17.352Z,1.60
2017-12-17T20:16:43.400Z,1.60
2017-12-17T20:19:09.404Z,1.60
2017-12-17T20:21:35.456Z,1.60
2017-12-17T20:24:02.225Z,1.60
2017-12-17T20:26:28.210Z,1.60
2017-12-17T20:28:54.984Z,1.60
2017-12-17T20:31:21.034Z,1.60
2017-12-17T20:33:47.913Z,1.60
2017-12-17T20:36:13.950Z,1.60
2017-12-17T20:38:39.969Z,1.60
2017-12-17T20:41:06.751Z,1.70
2017-12-17T20:43:32.781Z,1.70
2017-12-17T20:45:58.850Z,1.70
2017-12-17T20:48:25.588Z,1.70
2017-12-17T20:50:51.592Z,1.70
2017-12-17T20:53:18.396Z,1.70
2017-12-17T20:55:44.401Z,1.70
2017-12-17T20:58:10.433Z,1.70
2017-12-17T21:00:36.425Z,1.70
2017-12-17T21:03:02.472Z,1.60
2017-12-17T21:05:28.525Z,1.70
2017-12-17T21:07:55.289Z,1.60
2017-12-17T21:10:21.329Z,1.60
2017-12-17T21:12:48.060Z,1.60
2017-12-17T21:15:14.304Z,1.60
2017-12-17T21:17:40.292Z,1.60
2017-12-17T21:20:06.320Z,1.60
2017-12-17T21:22:32.313Z,1.60
2017-12-17T21:24:58.341Z,1.60
2017-12-17T21:27:24.376Z,1.60
2017-12-17T21:29:50.382Z,1.60
2017-12-17T21:32:16.435Z,1.70
2017-12-17T21:34:42.456Z,1.70
2017-12-17T21:37:08.476Z,1.70
2017-12-17T21:39:34.475Z,1.70
2017-12-17T21:42:00.524Z,1.60
2017-12-17T21:44:27.336Z,1.70
2017-12-17T21:46:53.357Z,1.60
2017-12-17T21:49:19.352Z,1.60
2017-12-17T21:51:46.126Z,1.70
2017-12-17T21:54:12.136Z,1.70
2017-12-17T21:56:38.164Z,1.70
2017-12-17T21:59:04.161Z,1.70
2017-12-17T22:01:37.172Z,1.70
2017-12-17T22:04:03.920Z,1.60
2017-12-17T22:06:29.966Z,1.60
2017-12-17T22:08:56.398Z,1.60
2017-12-17T22:11:22.409Z,1.70
2017-12-17T22:13:48.442Z,1.60
2017-12-17T22:16:14.472Z,1.60
2017-12-17T22:18:41.212Z,1.60
2017-12-17T22:21:08.014Z,1.60
2017-12-17T22:23:34.039Z,1.60
2017-12-17T22:26:00.049Z,1.60
2017-12-17T22:28:26.833Z,1.60
2017-12-17T22:30:52.864Z,1.60
2017-12-17T22:33:18.861Z,1.60
2017-12-17T22:35:44.911Z,1.60
2017-12-17T22:38:11.697Z,1.60
2017-12-17T22:40:37.716Z,1.60
2017-12-17T22:43:03.752Z,1.70
2017-12-17T22:45:29.814Z,1.70
2017-12-17T22:47:55.873Z,1.70
2017-12-17T22:50:21.902Z,1.60
2017-12-17T22:52:47.949Z,1.80
2017-12-17T22:55:13.931Z,1.80
2017-12-17T22:57:40.683Z,1.70
2017-12-17T23:00:07.389Z,1.60
2017-12-17T23:02:33.376Z,1.60
2017-12-17T23:05:00.213Z,1.50
2017-12-17T23:07:26.190Z,1.50
2017-12-17T23:09:52.184Z,1.60
2017-12-17T23:12:18.195Z,1.60
2017-12-17T23:14:51.280Z,1.60
2017-12-17T23:17:17.308Z,1.60
2017-12-17T23:19:43.253Z,1.50
2017-12-17T23:22:09.267Z,1.50
2017-12-17T23:24:35.292Z,1.50
2017-12-17T23:27:01.309Z,1.70
2017-12-17T23:29:27.271Z,1.60
2017-12-17T23:31:53.269Z,1.60
2017-12-17T23:34:19.275Z,1.50
2017-12-17T23:36:45.245Z,1.50
2017-12-17T23:39:11.241Z,1.50
2017-12-17T23:41:37.205Z,1.50
2017-12-17T23:44:03.179Z,1.50
2017-12-17T23:46:29.895Z,1.50
2017-12-17T23:48:55.945Z,1.50
2017-12-17T23:51:21.905Z,1.50
2017-12-17T23:53:47.861Z,1.50
2017-12-17T23:56:13.837Z,1.50
2017-12-17T23:58:39.821Z,1.50
